Time;durP1;ratioP1;P1;durP2;ratioP2;P2;SDS_P1;SDS_P2;PMS_P1;PMS_P2;Temp;Humidity;BMP_temperature;BMP_pressure;BME280_temperature;BME280_humidity;BME280_pressure;Samples;Min_cycle;Max_cycle;Signal;HPM_P1;HPM_P2
2021/06/24 00:00:02;;;;;;;8.88;5.00;;;;;;;12.61;75.46;102486.91;4958192;28;20055;-71
2021/06/24 00:02:31;;;;;;;14.07;5.72;;;;;;;12.67;75.48;102492.19;4961489;28;20069;-72
2021/06/24 00:04:58;;;;;;;13.88;5.95;;;;;;;12.66;75.34;102477.88;4960802;28;20066;-71
2021/06/24 00:07:26;;;;;;;10.80;5.93;;;;;;;12.64;75.23;102476.16;4958417;28;20965;-72
2021/06/24 00:09:54;;;;;;;12.18;5.82;;;;;;;12.62;74.88;102473.50;4959201;28;20117;-72
2021/06/24 00:12:22;;;;;;;10.00;5.50;;;;;;;12.70;75.45;102471.59;4960901;28;20066;-71
2021/06/24 00:14:50;;;;;;;12.52;6.22;;;;;;;12.73;75.01;102475.13;4957041;28;20073;-71
2021/06/24 00:17:17;;;;;;;12.80;5.63;;;;;;;12.69;75.26;102475.16;4961916;28;20066;-71
2021/06/24 00:19:46;;;;;;;9.55;5.32;;;;;;;12.73;75.27;102476.00;4960618;28;20063;-72
2021/06/24 00:22:14;;;;;;;7.80;5.55;;;;;;;12.73;75.49;102469.78;4957124;28;20055;-72
2021/06/24 00:24:42;;;;;;;9.80;5.18;;;;;;;12.67;75.13;102460.06;4958099;28;20059;-71
2021/06/24 00:27:10;;;;;;;11.80;5.90;;;;;;;12.61;75.44;102461.00;4958914;28;20069;-72
2021/06/24 00:29:37;;;;;;;10.30;6.00;;;;;;;12.49;75.78;102459.38;4961921;28;20055;-71
2021/06/24 00:32:06;;;;;;;8.48;5.75;;;;;;;12.51;75.93;102462.94;4955020;28;20539;-72
2021/06/24 00:34:34;;;;;;;10.18;6.57;;;;;;;12.54;76.27;102450.41;4961807;28;20064;-71
2021/06/24 00:37:04;;;;;;;11.30;5.93;;;;;;;12.60;75.95;102455.66;4957738;28;20074;-71
2021/06/24 00:39:31;;;;;;;12.20;6.15;;;;;;;12.54;76.07;102453.09;4960616;28;20312;-71
2021/06/24 00:42:01;;;;;;;10.82;6.18;;;;;;;12.49;76.59;102461.19;4956375;28;20067;-71
2021/06/24 00:44:28;;;;;;;11.13;6.25;;;;;;;12.52;76.28;102461.16;4956556;28;20062;-71
2021/06/24 00:46:56;;;;;;;12.85;6.38;;;;;;;12.42;76.35;102452.34;4952300;28;20074;-72
2021/06/24 00:49:24;;;;;;;10.35;6.82;;;;;;;12.46;76.31;102459.47;4957410;28;20063;-71
2021/06/24 00:51:52;;;;;;;14.48;7.22;;;;;;;12.47;76.28;102463.00;4967364;28;20450;-72
2021/06/24 00:54:21;;;;;;;12.27;6.80;;;;;;;12.44;76.59;102463.03;4961935;28;20058;-71
2021/06/24 00:56:49;;;;;;;13.85;7.57;;;;;;;12.40;77.03;102458.66;4954476;28;20070;-72
2021/06/24 00:59:16;;;;;;;9.77;6.20;;;;;;;12.42;77.06;102463.06;4955608;28;20070;-71
2021/06/24 01:01:44;;;;;;;10.05;6.35;;;;;;;12.44;77.10;102455.00;4954817;28;20579;-71
2021/06/24 01:04:13;;;;;;;11.48;6.32;;;;;;;12.41;76.88;102458.63;4953828;28;20369;-70
2021/06/24 01:06:40;;;;;;;11.80;5.93;;;;;;;12.40;76.78;102462.22;4956161;28;20074;-71
2021/06/24 01:09:08;;;;;;;13.73;6.55;;;;;;;12.37;76.81;102461.38;4954010;28;20069;-73
2021/06/24 01:11:37;;;;;;;9.73;6.40;;;;;;;12.44;76.90;102460.38;4957449;28;20087;-71
2021/06/24 01:14:06;;;;;;;13.85;6.68;;;;;;;12.53;76.68;102470.94;4955089;28;20099;-71
2021/06/24 01:16:34;;;;;;;9.43;6.55;;;;;;;12.52;76.74;102458.47;4949171;28;20070;-71
2021/06/24 01:19:02;;;;;;;12.68;6.18;;;;;;;12.52;76.90;102474.53;4953103;28;20062;-71
2021/06/24 01:21:30;;;;;;;10.73;7.20;;;;;;;12.55;76.58;102474.50;4955636;28;20058;-72
2021/06/24 01:23:59;;;;;;;12.23;7.07;;;;;;;12.54;76.57;102482.56;4953733;28;20070;-72
2021/06/24 01:26:27;;;;;;;13.25;6.60;;;;;;;12.57;76.59;102482.50;4960368;28;20054;-71
2021/06/24 01:28:55;;;;;;;13.40;7.07;;;;;;;12.58;76.77;102482.50;4953305;28;20063;-71
2021/06/24 01:31:23;;;;;;;13.05;7.18;;;;;;;12.57;76.52;102478.03;4958999;28;20155;-72
2021/06/24 01:33:51;;;;;;;13.88;7.85;;;;;;;12.56;76.52;102470.91;4952883;28;20193;-72
2021/06/24 01:36:19;;;;;;;13.98;7.47;;;;;;;12.50;76.45;102476.34;4955131;28;20058;-71
2021/06/24 01:38:48;;;;;;;13.43;8.15;;;;;;;12.50;76.65;102471.88;4954449;28;20066;-71
2021/06/24 01:41:17;;;;;;;15.30;7.15;;;;;;;12.59;76.80;102470.84;4952738;28;20059;-71
2021/06/24 01:43:45;;;;;;;11.77;7.13;;;;;;;12.54;76.50;102466.50;4955774;28;20061;-72
2021/06/24 01:46:13;;;;;;;12.80;7.32;;;;;;;12.38;77.32;102463.13;4952873;28;20071;-71
2021/06/24 01:48:41;;;;;;;14.02;7.22;;;;;;;12.49;76.99;102467.41;4956263;28;20063;-72
2021/06/24 01:51:09;;;;;;;11.95;7.40;;;;;;;12.50;76.49;102471.00;4952162;28;20054;-71
2021/06/24 01:53:37;;;;;;;13.98;7.90;;;;;;;12.47;77.03;102465.69;4954192;28;20058;-72
2021/06/24 01:56:06;;;;;;;12.15;8.00;;;;;;;12.42;77.42;102463.06;4955595;28;20150;-68
2021/06/24 01:58:36;;;;;;;12.45;8.15;;;;;;;12.43;77.47;102470.19;4953256;28;20101;-69
2021/06/24 02:01:05;;;;;;;15.48;8.50;;;;;;;12.42;77.54;102467.53;4950087;28;21359;-68
2021/06/24 02:03:35;;;;;;;11.85;7.00;;;;;;;12.47;77.61;102468.38;4959268;28;20158;-69
2021/06/24 02:06:03;;;;;;;13.88;8.07;;;;;;;12.42;77.63;102463.06;4950981;28;20094;-69
2021/06/24 02:08:35;;;;;;;13.77;8.25;;;;;;;12.34;77.79;102464.97;4954453;28;20089;-68
2021/06/24 02:11:04;;;;;;;12.48;7.25;;;;;;;12.41;77.82;102457.72;4952757;28;20059;-69
2021/06/24 02:13:32;;;;;;;14.52;8.38;;;;;;;12.34;78.00;102448.91;4954218;28;20468;-69
2021/06/24 02:16:01;;;;;;;12.98;8.13;;;;;;;12.40;77.95;102445.28;4951825;28;20513;-69
2021/06/24 02:18:29;;;;;;;16.63;7.68;;;;;;;12.33;78.19;102439.13;4951046;28;20141;-69
2021/06/24 02:20:57;;;;;;;19.52;10.73;;;;;;;12.39;78.00;102447.03;4953863;28;20074;-69
2021/06/24 02:23:25;;;;;;;17.25;8.18;;;;;;;12.37;78.31;102431.94;4955844;28;20081;-68
2021/06/24 02:25:52;;;;;;;14.88;8.45;;;;;;;12.30;78.56;102421.28;4950745;28;20117;-68
2021/06/24 02:28:20;;;;;;;15.45;8.23;;;;;;;12.28;78.55;102414.22;4952854;28;20449;-68
2021/06/24 02:30:48;;;;;;;18.52;8.07;;;;;;;12.20;78.90;102414.31;4949779;28;20081;-69
2021/06/24 02:33:18;;;;;;;11.98;7.78;;;;;;;12.25;78.82;102419.59;4957138;28;20262;-68
2021/06/24 02:35:48;;;;;;;13.65;7.95;;;;;;;12.27;78.67;102415.09;4957296;28;20063;-69
2021/06/24 02:38:16;;;;;;;15.10;8.57;;;;;;;12.23;78.51;102414.25;4952234;28;20070;-68
2021/06/24 02:40:43;;;;;;;12.57;7.68;;;;;;;12.14;79.24;102411.72;4954037;28;20063;-69
2021/06/24 02:43:11;;;;;;;17.48;9.10;;;;;;;12.12;79.47;102416.19;4951341;28;20461;-69
2021/06/24 02:45:40;;;;;;;15.65;8.07;;;;;;;12.18;79.20;102413.44;4954493;28;20062;-68
2021/06/24 02:48:08;;;;;;;15.40;8.48;;;;;;;12.19;79.62;102407.19;4956874;28;20081;-69
2021/06/24 02:50:38;;;;;;;15.57;8.48;;;;;;;12.19;79.65;102412.56;4957122;28;20396;-68
2021/06/24 02:53:05;;;;;;;14.00;8.63;;;;;;;12.24;79.69;102424.06;4957227;28;20084;-71
2021/06/24 02:55:33;;;;;;;13.40;7.82;;;;;;;12.25;79.25;102423.16;4957797;28;20273;-71
2021/06/24 02:58:02;;;;;;;13.48;8.18;;;;;;;12.21;79.30;102420.53;4957379;28;20058;-71
2021/06/24 03:00:29;;;;;;;14.82;8.25;;;;;;;12.24;79.34;102420.50;4959398;28;20273;-72
2021/06/24 03:02:58;;;;;;;15.90;8.98;;;;;;;12.23;79.81;102413.38;4953212;28;20098;-71
2021/06/24 03:05:26;;;;;;;15.82;8.13;;;;;;;12.29;79.39;102408.84;4959043;28;20067;-72
2021/06/24 03:07:55;;;;;;;14.52;8.23;;;;;;;12.28;79.67;102411.53;4957111;28;20072;-71
2021/06/24 03:10:24;;;;;;;14.13;9.05;;;;;;;12.30;79.86;102421.28;4956478;28;20067;-71
2021/06/24 03:12:53;;;;;;;17.65;8.82;;;;;;;12.27;79.97;102415.09;4956759;28;20065;-72
2021/06/24 03:15:21;;;;;;;13.75;8.93;;;;;;;12.30;80.29;102423.97;4957933;28;21916;-71
2021/06/24 03:17:50;;;;;;;15.88;8.85;;;;;;;12.29;80.61;102421.31;4954881;28;20079;-72
2021/06/24 03:20:18;;;;;;;16.38;9.30;;;;;;;12.38;80.24;102429.22;4957705;28;20066;-71
2021/06/24 03:22:45;;;;;;;17.63;10.05;;;;;;;12.32;80.99;102421.28;4952964;28;20059;-72
2021/06/24 03:25:15;;;;;;;17.38;10.25;;;;;;;12.39;80.76;102430.97;4960147;28;20361;-71
2021/06/24 03:27:43;;;;;;;19.02;12.45;;;;;;;12.41;80.65;102420.25;4957110;28;20066;-71
2021/06/24 03:30:13;;;;;;;23.15;11.63;;;;;;;12.45;80.80;102422.88;4957781;28;20125;-71
2021/06/24 03:32:41;;;;;;;16.08;10.80;;;;;;;12.45;80.51;102416.63;4961133;28;20059;-71
2021/06/24 03:35:10;;;;;;;19.98;10.30;;;;;;;12.49;80.52;102410.31;4954649;28;20067;-71
2021/06/24 03:37:37;;;;;;;16.73;9.77;;;;;;;12.53;80.16;102417.38;4959475;28;20054;-71
2021/06/24 03:40:08;;;;;;;17.08;9.32;;;;;;;12.54;80.64;102420.97;4953279;28;20126;-71
2021/06/24 03:42:37;;;;;;;16.33;9.05;;;;;;;12.47;80.58;102415.69;4956638;28;20063;-72
2021/06/24 03:45:07;;;;;;;15.00;9.57;;;;;;;12.46;80.89;102405.00;4953804;28;20059;-71
2021/06/24 03:47:35;;;;;;;16.67;9.95;;;;;;;12.46;80.81;102408.59;4956207;28;20061;-71
2021/06/24 03:50:04;;;;;;;17.85;9.65;;;;;;;12.42;80.89;102408.66;4954556;28;20059;-71
2021/06/24 03:52:32;;;;;;;18.55;9.20;;;;;;;12.43;80.76;102405.03;4959994;28;20074;-71
2021/06/24 03:55:00;;;;;;;14.57;9.02;;;;;;;12.47;80.39;102404.13;4954263;28;20066;-71
2021/06/24 03:57:28;;;;;;;16.33;9.82;;;;;;;12.48;80.95;102405.84;4958011;28;20510;-72
2021/06/24 03:59:57;;;;;;;16.75;9.30;;;;;;;12.47;81.09;102415.69;4952899;28;20094;-72
2021/06/24 04:02:25;;;;;;;16.95;9.88;;;;;;;12.51;81.38;102400.47;4955931;28;20086;-71
2021/06/24 04:05:12;;;;;;;19.27;9.70;;;;;;;12.47;81.00;102401.44;4955917;28;20062;-72
2021/06/24 04:07:39;;;;;;;19.77;10.27;;;;;;;12.49;80.74;102404.97;4958279;28;20054;-72
2021/06/24 04:10:08;;;;;;;17.38;9.70;;;;;;;12.53;80.61;102409.34;4957087;28;20522;-71
2021/06/24 04:12:38;;;;;;;16.33;9.80;;;;;;;12.63;80.29;102407.44;4957832;28;20118;-72
2021/06/24 04:15:09;;;;;;;15.77;8.88;;;;;;;12.62;80.10;102406.56;4952607;28;20058;-73
2021/06/24 04:17:37;;;;;;;17.75;9.70;;;;;;;12.63;80.14;102404.75;4959275;28;20073;-71
2021/06/24 04:20:07;;;;;;;16.92;9.52;;;;;;;12.65;80.19;102406.50;4951854;28;20074;-72
2021/06/24 04:22:35;;;;;;;15.45;8.73;;;;;;;12.63;79.86;102400.31;4960552;28;20147;-71
2021/06/24 04:25:03;;;;;;;15.98;10.23;;;;;;;12.68;80.35;102398.44;4951893;28;20071;-72
2021/06/24 04:27:30;;;;;;;16.20;9.40;;;;;;;12.75;79.75;102404.53;4957374;28;20074;-72
2021/06/24 04:29:58;;;;;;;14.25;9.15;;;;;;;12.78;79.92;102401.81;4955340;28;20490;-72
2021/06/24 04:32:27;;;;;;;16.30;9.35;;;;;;;12.81;80.09;102398.22;4952784;28;20070;-72
2021/06/24 04:34:55;;;;;;;15.75;9.10;;;;;;;12.84;79.54;102401.72;4959056;28;20247;-71
2021/06/24 04:37:23;;;;;;;17.25;8.77;;;;;;;12.92;79.84;102403.38;4966344;28;20485;-72
2021/06/24 04:39:50;;;;;;;16.65;8.80;;;;;;;12.91;79.93;102405.19;4956796;28;20145;-72
2021/06/24 04:42:18;;;;;;;16.25;9.88;;;;;;;12.87;79.83;102416.84;4955248;28;20055;-71
2021/06/24 04:44:46;;;;;;;13.77;8.23;;;;;;;12.88;79.48;102418.63;4953736;28;20074;-71
2021/06/24 04:47:15;;;;;;;16.50;8.57;;;;;;;12.92;79.41;102419.47;4957150;28;20065;-72
2021/06/24 04:49:44;;;;;;;16.70;8.63;;;;;;;12.95;79.29;102422.97;4954248;28;20066;-69
2021/06/24 04:52:12;;;;;;;14.57;9.05;;;;;;;12.92;79.40;102414.97;4952211;28;20117;-69
2021/06/24 04:54:40;;;;;;;16.50;9.15;;;;;;;13.01;79.16;102405.94;4957926;28;20070;-70
2021/06/24 04:57:07;;;;;;;14.98;8.40;;;;;;;13.03;79.05;102418.38;4955971;28;20067;-69
2021/06/24 04:59:35;;;;;;;16.05;8.43;;;;;;;13.01;79.23;102414.84;4957207;28;21599;-69
2021/06/24 05:02:04;;;;;;;16.30;9.18;;;;;;;13.03;79.35;102410.34;4953614;28;20066;-69
2021/06/24 05:04:31;;;;;;;15.13;8.98;;;;;;;13.03;79.39;102407.66;4956249;28;20073;-70
2021/06/24 05:07:03;;;;;;;13.68;8.63;;;;;;;13.05;79.06;102402.28;4953640;28;20063;-68
2021/06/24 05:09:33;;;;;;;13.48;8.05;;;;;;;13.19;78.80;102399.34;4957967;28;20058;-68
2021/06/24 05:12:00;;;;;;;15.02;8.48;;;;;;;13.26;78.86;102398.31;4954390;28;20402;-68
2021/06/24 05:14:28;;;;;;;16.92;8.18;;;;;;;13.18;78.54;102398.47;4952451;28;20067;-69
2021/06/24 05:16:56;;;;;;;13.70;8.98;;;;;;;13.20;78.94;102398.44;4957085;28;20077;-69
2021/06/24 05:19:24;;;;;;;18.00;8.63;;;;;;;13.34;78.44;102398.22;4955462;28;20125;-69
2021/06/24 05:21:51;;;;;;;18.02;9.52;;;;;;;13.40;78.40;102396.31;4958041;28;20545;-72
2021/06/24 05:24:21;;;;;;;14.07;8.43;;;;;;;13.45;78.75;102397.09;4956581;28;20058;-71
2021/06/24 05:26:48;;;;;;;12.55;8.52;;;;;;;13.44;77.75;102406.03;4959497;28;20066;-70
2021/06/24 05:29:16;;;;;;;15.30;8.82;;;;;;;13.43;77.38;102396.25;4955494;28;20066;-68
2021/06/24 05:31:44;;;;;;;14.05;8.15;;;;;;;13.57;77.53;102392.38;4958332;28;20113;-68
2021/06/24 05:34:12;;;;;;;18.00;8.70;;;;;;;13.58;77.64;102388.81;4957406;28;20071;-70
2021/06/24 05:36:39;;;;;;;13.50;8.38;;;;;;;13.59;76.83;102391.47;4959927;28;20051;-69
2021/06/24 05:39:07;;;;;;;14.48;8.35;;;;;;;13.66;76.90;102391.34;4954970;28;20062;-69
2021/06/24 05:41:36;;;;;;;14.30;7.70;;;;;;;13.76;76.82;102380.38;4961749;28;20098;-70
2021/06/24 05:44:05;;;;;;;15.32;8.07;;;;;;;13.76;76.55;102388.44;4956776;28;20520;-69
2021/06/24 05:46:33;;;;;;;15.70;7.97;;;;;;;13.69;76.63;102386.78;4960592;28;20098;-69
2021/06/24 05:49:01;;;;;;;15.88;8.77;;;;;;;13.77;76.36;102384.84;4957330;28;20081;-68
2021/06/24 05:51:28;;;;;;;21.08;7.72;;;;;;;13.72;76.27;102385.84;4958303;28;20513;-68
2021/06/24 05:53:56;;;;;;;17.00;8.13;;;;;;;13.81;75.89;102378.47;4959852;28;20062;-69
2021/06/24 05:56:24;;;;;;;15.00;8.27;;;;;;;13.86;75.66;102377.50;4957728;28;20081;-69
2021/06/24 05:58:53;;;;;;;12.13;7.90;;;;;;;13.78;75.41;102380.34;4958135;28;20067;-69
2021/06/24 06:01:22;;;;;;;15.05;8.25;;;;;;;13.89;75.92;102375.63;4957577;28;20067;-69
2021/06/24 06:03:50;;;;;;;12.13;8.02;;;;;;;14.01;76.01;102380.75;4956277;28;20383;-70
2021/06/24 06:06:19;;;;;;;12.45;8.05;;;;;;;14.12;74.78;102376.94;4956967;28;20063;-70
2021/06/24 06:08:46;;;;;;;14.15;7.35;;;;;;;14.06;74.90;102371.69;4957906;28;20063;-70
2021/06/24 06:11:14;;;;;;;13.85;7.35;;;;;;;14.19;74.20;102375.88;4952258;28;20558;-69
2021/06/24 06:13:42;;;;;;;15.25;7.78;;;;;;;14.29;73.92;102369.38;4956431;28;20051;-68
2021/06/24 06:16:11;;;;;;;11.77;8.43;;;;;;;14.48;74.04;102359.06;4950000;28;20089;-70
2021/06/24 06:18:39;;;;;;;12.25;7.18;;;;;;;14.60;72.98;102367.78;4955132;28;20121;-71
2021/06/24 06:21:07;;;;;;;14.25;7.85;;;;;;;14.64;72.88;102366.78;4953173;28;20062;-71
2021/06/24 06:23:35;;;;;;;12.57;7.90;;;;;;;14.63;72.90;102365.03;4953505;28;20065;-72
2021/06/24 06:26:03;;;;;;;17.23;8.82;;;;;;;14.65;73.14;102356.00;4955865;28;20065;-72
2021/06/24 06:28:32;;;;;;;14.73;7.93;;;;;;;14.90;72.80;102352.69;4953373;28;20069;-71
2021/06/24 06:31:00;;;;;;;13.25;8.13;;;;;;;14.81;72.21;102356.47;4949909;28;20458;-73
2021/06/24 06:33:29;;;;;;;14.73;7.85;;;;;;;15.00;72.23;102356.91;4958691;28;20161;-72
2021/06/24 06:35:57;;;;;;;14.07;7.63;;;;;;;15.11;71.91;102345.88;4961488;28;20066;-72
2021/06/24 06:38:25;;;;;;;13.30;8.55;;;;;;;15.12;70.97;102347.63;4953973;28;20295;-70
2021/06/24 06:40:53;;;;;;;15.82;8.23;;;;;;;15.32;70.60;102345.28;4951661;28;20118;-72
2021/06/24 06:43:21;;;;;;;13.18;7.55;;;;;;;15.30;70.45;102347.09;4955085;28;20627;-72
2021/06/24 06:45:49;;;;;;;12.65;7.57;;;;;;;15.40;70.00;102350.41;4958915;28;20074;-73
2021/06/24 06:48:20;;;;;;;12.43;8.05;;;;;;;15.44;70.08;102346.75;4953107;28;21931;-71
2021/06/24 06:50:50;;;;;;;16.42;8.75;;;;;;;15.29;70.32;102349.88;4958359;28;20073;-73
2021/06/24 06:53:17;;;;;;;14.07;7.32;;;;;;;15.38;69.89;102348.72;4951337;28;20066;-74
2021/06/24 06:55:46;;;;;;;11.52;7.85;;;;;;;15.47;69.76;102348.44;4953048;28;20067;-73
2021/06/24 06:58:14;;;;;;;15.45;8.50;;;;;;;15.44;68.85;102353.91;4951846;28;20098;-71
2021/06/24 07:00:42;;;;;;;14.70;7.82;;;;;;;15.54;68.74;102358.09;4953159;28;20087;-71
2021/06/24 07:03:09;;;;;;;12.10;7.57;;;;;;;15.71;68.97;102349.53;4954405;28;20067;-69
2021/06/24 07:05:37;;;;;;;14.68;8.07;;;;;;;15.84;68.78;102352.78;4954379;28;20100;-69
2021/06/24 07:08:08;;;;;;;15.43;7.13;;;;;;;16.05;67.63;102351.22;4952544;28;20090;-68
2021/06/24 07:10:35;;;;;;;10.98;6.90;;;;;;;15.96;66.94;102355.09;4957967;28;20437;-69
2021/06/24 07:13:03;;;;;;;15.38;6.88;;;;;;;16.28;67.40;102353.22;4949924;28;20149;-72
2021/06/24 07:15:31;;;;;;;13.65;6.75;;;;;;;16.31;67.63;102357.59;4959083;28;20150;-72
2021/06/24 07:17:59;;;;;;;10.82;6.97;;;;;;;16.02;66.81;102354.00;4954440;28;20076;-72
2021/06/24 07:20:27;;;;;;;13.85;7.40;;;;;;;15.83;67.10;102348.31;4954894;28;20470;-71
2021/06/24 07:22:55;;;;;;;11.63;7.28;;;;;;;15.97;66.78;102353.28;4956763;28;20062;-71
2021/06/24 07:25:24;;;;;;;12.80;7.63;;;;;;;16.19;66.86;102361.56;4956986;28;20187;-69
2021/06/24 07:27:53;;;;;;;12.45;7.22;;;;;;;16.41;66.52;102351.88;4953706;28;20071;-69
2021/06/24 07:30:22;;;;;;;14.60;7.97;;;;;;;16.56;66.09;102345.09;4961806;28;20091;-72
2021/06/24 07:32:50;;;;;;;12.20;7.95;;;;;;;16.51;65.09;102348.88;4954500;28;20070;-72
2021/06/24 07:35:18;;;;;;;11.43;7.70;;;;;;;16.33;66.05;102347.66;4971804;28;20497;-72
2021/06/24 07:37:45;;;;;;;13.68;7.60;;;;;;;16.52;65.29;102354.22;4959034;28;20121;-72
2021/06/24 07:40:14;;;;;;;14.13;7.72;;;;;;;16.70;64.89;102341.97;4958618;28;20074;-72
2021/06/24 07:42:43;;;;;;;13.95;7.22;;;;;;;16.76;65.61;102347.13;4962753;28;20067;-72
2021/06/24 07:45:12;;;;;;;12.68;7.80;;;;;;;16.67;65.47;102352.84;4956073;28;20063;-72
2021/06/24 07:47:41;;;;;;;14.27;7.78;;;;;;;16.77;65.37;102351.59;4962823;28;20069;-72
2021/06/24 07:50:09;;;;;;;17.20;8.85;;;;;;;16.55;64.61;102353.22;4960210;28;20058;-69
2021/06/24 07:52:37;;;;;;;12.93;7.78;;;;;;;16.67;64.99;102352.84;4961536;28;20126;-70
2021/06/24 07:55:07;;;;;;;12.15;8.25;;;;;;;16.63;64.34;102359.25;4960269;28;20113;-70
2021/06/24 07:57:35;;;;;;;16.50;7.18;;;;;;;16.79;64.75;102351.53;4958474;28;20074;-70
2021/06/24 08:00:08;;;;;;;10.07;6.40;;;;;;;17.01;63.95;102354.41;4959650;28;20063;-70
2021/06/24 08:02:36;;;;;;;11.88;7.10;;;;;;;16.91;64.45;102353.84;4961361;28;20399;-70
2021/06/24 08:05:05;;;;;;;11.93;7.75;;;;;;;16.95;63.64;102354.59;4956232;28;20063;-69
2021/06/24 08:07:33;;;;;;;11.57;6.72;;;;;;;17.07;62.59;102350.59;4964575;28;20371;-70
2021/06/24 08:10:02;;;;;;;16.77;7.05;;;;;;;16.92;62.73;102352.00;4953242;28;20074;-69
2021/06/24 08:12:30;;;;;;;12.30;6.45;;;;;;;17.06;62.77;102347.03;4959582;28;20382;-70
2021/06/24 08:15:01;;;;;;;12.52;6.40;;;;;;;17.18;60.56;102351.97;4959387;28;20289;-70
2021/06/24 08:17:30;;;;;;;11.07;6.28;;;;;;;16.83;60.43;102350.47;4959983;28;20063;-69
2021/06/24 08:19:58;;;;;;;11.73;5.95;;;;;;;17.04;61.31;102345.31;4956261;28;20174;-69
2021/06/24 08:22:27;;;;;;;12.63;5.63;;;;;;;17.15;61.07;102345.81;4955373;28;20109;-69
2021/06/24 08:24:55;;;;;;;12.48;6.28;;;;;;;16.84;62.39;102343.28;4954820;28;20066;-69
2021/06/24 08:27:23;;;;;;;12.38;7.25;;;;;;;17.12;61.34;102329.75;4957736;28;20070;-69
2021/06/24 08:29:51;;;;;;;11.60;7.63;;;;;;;17.04;61.62;102338.09;4969079;28;20959;-69
2021/06/24 08:32:18;;;;;;;13.30;8.02;;;;;;;16.75;62.61;102328.31;4955532;28;20327;-69
2021/06/24 08:34:48;;;;;;;13.57;7.40;;;;;;;16.88;63.22;102331.50;4956664;28;20058;-70
2021/06/24 08:37:15;;;;;;;12.32;7.40;;;;;;;17.11;62.78;102336.06;4947561;28;20750;-69
2021/06/24 08:39:44;;;;;;;14.25;8.27;;;;;;;17.04;61.85;102340.78;4955682;28;21104;-70
2021/06/24 08:42:13;;;;;;;16.90;7.10;;;;;;;17.05;61.43;102333.59;4964525;28;20070;-70
2021/06/24 08:44:41;;;;;;;11.98;6.80;;;;;;;16.60;61.58;102335.09;4959200;28;20069;-69
2021/06/24 08:47:10;;;;;;;11.27;7.18;;;;;;;16.81;61.96;102337.06;4948867;28;20066;-69
2021/06/24 08:49:38;;;;;;;12.55;6.65;;;;;;;17.02;62.26;102337.28;4951309;28;20066;-69
2021/06/24 08:52:09;;;;;;;11.23;6.93;;;;;;;17.00;61.16;102333.75;4952720;28;20604;-72
2021/06/24 08:54:37;;;;;;;11.70;7.40;;;;;;;17.19;60.88;102339.38;4951139;28;20081;-71
2021/06/24 08:57:07;;;;;;;13.07;6.60;;;;;;;17.27;61.01;102339.97;4952266;28;20058;-71
2021/06/24 08:59:34;;;;;;;12.85;6.65;;;;;;;17.12;60.95;102341.41;4951592;28;20063;-71
2021/06/24 09:02:06;;;;;;;12.95;7.25;;;;;;;17.16;60.27;102343.06;4948347;28;20055;-71
2021/06/24 09:04:34;;;;;;;11.90;5.93;;;;;;;17.62;60.80;102351.28;4958422;28;20070;-71
2021/06/24 09:07:08;;;;;;;9.70;5.80;;;;;;;17.73;60.27;102345.47;4952224;28;20181;-74
2021/06/24 09:09:37;;;;;;;;;;;;;;;17.52;60.35;102348.03;4955903;28;20069;-75
2021/06/24 09:12:07;;;;;;;12.50;7.30;;;;;;;17.74;60.49;102339.13;4949915;28;20066;-74
2021/06/24 09:14:40;;;;;;;11.48;6.53;;;;;;;17.82;59.83;102346.94;4951326;28;20073;-71
2021/06/24 09:17:08;;;;;;;12.25;6.72;;;;;;;18.00;58.75;102348.94;4951197;28;20534;-72
2021/06/24 09:19:40;;;;;;;13.07;7.97;;;;;;;17.54;58.52;102350.69;4951703;28;20173;-72
2021/06/24 09:22:12;;;;;;;13.38;7.82;;;;;;;17.77;59.05;102348.94;4950541;28;20063;-72
2021/06/24 09:24:42;;;;;;;12.52;6.93;;;;;;;17.80;58.63;102347.00;4947386;28;20090;-72
2021/06/24 09:27:36;;;;;;;13.18;7.35;;;;;;;18.16;58.38;102351.91;4950761;28;20069;-71
2021/06/24 09:30:09;;;;;;;12.13;6.53;;;;;;;18.89;57.36;102347.13;4947664;28;20655;-71
2021/06/24 09:32:39;;;;;;;10.10;7.32;;;;;;;18.79;55.54;102345.72;4950462;28;20060;-71
2021/06/24 09:35:09;;;;;;;12.45;7.63;;;;;;;18.84;55.11;102341.91;4951509;28;20055;-71
2021/06/24 09:38:00;;;;;;;12.60;7.57;;;;;;;19.22;53.95;102336.66;4947826;28;20066;-72
2021/06/24 09:40:39;;;;;;;11.60;7.10;;;;;;;19.40;53.22;102337.63;4951505;28;20063;-71
2021/06/24 09:43:07;;;;;;;12.13;7.22;;;;;;;19.00;53.90;102344.84;4952495;28;21012;-74
2021/06/24 09:45:35;;;;;;;10.75;7.18;;;;;;;19.59;52.92;102328.66;4950475;28;20625;-74
2021/06/24 09:48:10;;;;;;;13.82;7.45;;;;;;;19.78;53.11;102328.69;4953647;28;20387;-74
2021/06/24 09:50:39;;;;;;;11.90;7.20;;;;;;;19.87;52.26;102330.09;4961403;28;20062;-74
2021/06/24 09:53:09;;;;;;;14.57;7.35;;;;;;;20.11;52.77;102331.63;4952251;28;20641;-75
2021/06/24 09:55:37;;;;;;;11.23;6.60;;;;;;;19.15;53.74;102342.38;4950606;28;20054;-74
2021/06/24 09:58:13;;;;;;;9.43;6.60;;;;;;;18.37;54.84;102344.78;4953003;28;20071;-74
2021/06/24 10:00:50;;;;;;;11.70;6.90;;;;;;;18.87;55.24;102331.94;4980500;28;20075;-74
2021/06/24 10:03:18;;;;;;;13.38;7.38;;;;;;;19.25;54.56;102332.91;4951805;28;20088;-74
2021/06/24 10:05:48;;;;;;;10.73;6.68;;;;;;;18.91;55.42;102337.09;4949962;28;20057;-74
2021/06/24 10:08:17;;;;;;;10.38;6.38;;;;;;;19.32;54.50;102334.38;4953151;28;20082;-74
2021/06/24 10:10:45;;;;;;;11.00;6.28;;;;;;;19.58;53.95;102326.88;4951777;28;20065;-73
2021/06/24 10:13:13;;;;;;;11.35;6.78;;;;;;;19.02;54.47;102336.66;4950537;28;20059;-74
2021/06/24 10:15:41;;;;;;;9.95;6.45;;;;;;;19.23;54.85;102337.53;4946118;28;20058;-74
2021/06/24 10:18:09;;;;;;;12.18;7.18;;;;;;;19.21;54.22;102334.88;4953541;28;20055;-74
2021/06/24 10:20:37;;;;;;;12.18;7.25;;;;;;;19.74;53.57;102333.38;4946789;28;21007;-74
2021/06/24 10:23:11;;;;;;;12.70;7.55;;;;;;;19.93;51.70;102333.38;4957831;28;20063;-76
2021/06/24 10:25:43;;;;;;;12.98;7.90;;;;;;;20.17;50.94;102337.72;4949882;28;20122;-75
2021/06/24 10:28:12;;;;;;;10.57;8.02;;;;;;;20.57;50.35;102336.59;4953216;28;20071;-75
2021/06/24 10:30:41;;;;;;;11.90;7.93;;;;;;;20.68;50.42;102325.22;4955335;28;20109;-73
2021/06/24 10:33:12;;;;;;;15.88;7.85;;;;;;;20.94;50.07;102323.00;4952576;28;20461;-75
2021/06/24 10:35:51;;;;;;;11.63;7.35;;;;;;;21.52;48.44;102324.44;4952834;28;20148;-74
2021/06/24 10:38:23;;;;;;;13.73;7.85;;;;;;;20.97;49.26;102326.41;4957444;28;20257;-74
2021/06/24 10:40:58;;;;;;;14.13;9.20;;;;;;;19.54;51.08;102328.88;4954969;28;21023;-74
2021/06/24 10:43:44;;;;;;;11.25;7.85;;;;;;;19.69;52.33;102334.53;4960836;28;20069;-76
2021/06/24 10:46:14;;;;;;;14.20;8.05;;;;;;;20.21;50.45;102325.75;4954525;28;20059;-74
2021/06/24 10:48:41;;;;;;;13.25;7.00;;;;;;;20.33;50.47;102334.16;4959002;28;20520;-74
2021/06/24 10:51:10;;;;;;;12.95;7.28;;;;;;;19.45;52.19;102333.84;4956599;28;20995;-76
2021/06/24 10:53:50;;;;;;;17.25;8.25;;;;;;;19.34;52.40;102329.81;4954507;28;20070;-74
2021/06/24 10:56:48;;;;;;;15.30;8.50;;;;;;;19.07;52.60;102325.63;4957674;28;20274;-74
2021/06/24 10:59:29;;;;;;;11.07;7.68;;;;;;;19.20;52.89;102330.41;4954815;28;20055;-75
2021/06/24 11:02:14;;;;;;;12.40;8.23;;;;;;;19.89;50.14;102322.78;4947362;28;20066;-73
2021/06/24 11:04:44;;;;;;;12.25;7.78;;;;;;;20.77;51.06;102318.44;4952882;28;20153;-74
2021/06/24 11:07:36;;;;;;;12.95;8.40;;;;;;;21.83;46.85;102312.78;4965046;28;20100;-73
2021/06/24 11:10:30;;;;;;;13.10;9.27;;;;;;;21.69;46.74;102312.66;4957685;28;20090;-75
2021/06/24 11:13:01;;;;;;;13.80;8.15;;;;;;;20.88;48.32;102311.50;4953701;28;20062;-71
2021/06/24 11:15:51;;;;;;;13.57;8.00;;;;;;;21.07;47.43;102305.97;4960211;28;20058;-71
2021/06/24 11:18:51;;;;;;;14.05;8.55;;;;;;;20.71;47.62;102306.09;4949918;28;20146;-72
2021/06/24 11:21:49;;;;;;;12.93;8.45;;;;;;;20.87;48.29;102311.59;4956971;28;20063;-72
2021/06/24 11:24:20;;;;;;;12.98;7.55;;;;;;;20.60;47.94;102313.84;4948325;28;20070;-72
2021/06/24 11:26:49;;;;;;;13.10;8.77;;;;;;;19.51;50.26;102320.91;4956677;28;20898;-73